createdAt,value
2023-03-04T00:02:24.995Z,5.90
2023-03-04T00:04:53.078Z,5.90
2023-03-04T00:07:21.045Z,5.90
2023-03-04T00:09:48.999Z,5.80
2023-03-04T00:12:16.973Z,5.90
2023-03-04T00:14:44.924Z,5.90
2023-03-04T00:17:12.992Z,5.80
2023-03-04T00:19:42.276Z,5.80
2023-03-04T00:22:10.282Z,5.80
2023-03-04T00:24:38.283Z,5.80
2023-03-04T00:27:06.259Z,5.80
2023-03-04T00:29:34.300Z,5.80
2023-03-04T00:32:02.430Z,5.80
2023-03-04T00:34:32.747Z,5.80
2023-03-04T00:37:03.645Z,5.80
2023-03-04T00:39:31.695Z,5.80
2023-03-04T00:41:59.641Z,5.80
2023-03-04T00:44:27.588Z,5.80
2023-03-04T00:46:55.467Z,5.80
2023-03-04T00:49:23.533Z,5.80
2023-03-04T00:51:51.522Z,5.80
2023-03-04T00:54:21.630Z,5.80
2023-03-04T00:56:49.601Z,5.80
2023-03-04T00:59:17.610Z,5.80
2023-03-04T01:01:45.646Z,5.80
2023-03-04T01:04:13.579Z,5.80
2023-03-04T01:06:41.641Z,5.80
2023-03-04T01:09:09.691Z,5.80
2023-03-04T01:11:39.123Z,5.80
2023-03-04T01:14:07.197Z,5.80
2023-03-04T01:16:35.180Z,5.80
2023-03-04T01:19:03.424Z,5.80
2023-03-04T01:21:31.614Z,5.80
2023-03-04T01:23:59.638Z,5.80
2023-03-04T01:26:27.651Z,5.80
2023-03-04T01:28:57.014Z,5.80
2023-03-04T01:31:25.068Z,5.80
2023-03-04T01:33:53.001Z,5.80
2023-03-04T01:36:21.051Z,5.80
2023-03-04T01:38:49.074Z,5.80
2023-03-04T01:41:22.863Z,5.80
2023-03-04T01:43:50.966Z,5.80
2023-03-04T01:46:21.787Z,5.80
2023-03-04T01:48:49.891Z,5.80
2023-03-04T01:51:21.024Z,5.80
2023-03-04T01:53:53.278Z,5.80
2023-03-04T01:56:25.162Z,5.80
2023-03-04T01:59:14.497Z,5.70
2023-03-04T02:01:46.211Z,5.80
2023-03-04T02:04:16.863Z,5.80
2023-03-04T02:06:45.756Z,5.80
2023-03-04T02:09:13.954Z,5.70
2023-03-04T02:11:42.367Z,5.70
2023-03-04T02:14:11.780Z,5.70
2023-03-04T02:16:40.107Z,5.70
2023-03-04T02:19:17.650Z,5.70
2023-03-04T02:21:45.673Z,5.70
2023-03-04T02:24:18.266Z,5.70
2023-03-04T02:26:48.138Z,5.70
2023-03-04T02:29:17.688Z,5.70
2023-03-04T02:31:49.205Z,5.70
2023-03-04T02:34:20.047Z,5.70
2023-03-04T02:36:49.760Z,5.70
2023-03-04T02:39:26.242Z,5.70
2023-03-04T02:41:57.451Z,5.70
2023-03-04T02:44:27.455Z,5.70
2023-03-04T02:46:56.207Z,5.70
2023-03-04T02:49:26.496Z,5.70
2023-03-04T02:51:59.705Z,5.70
2023-03-04T02:54:27.693Z,5.70
2023-03-04T02:56:58.754Z,5.70
2023-03-04T02:59:26.759Z,5.70
2023-03-04T03:01:55.259Z,5.70
2023-03-04T03:04:25.305Z,5.70
2023-03-04T03:06:53.596Z,5.70
2023-03-04T03:09:21.706Z,5.70
2023-03-04T03:11:49.734Z,5.70
2023-03-04T03:14:19.399Z,5.70
2023-03-04T03:16:47.533Z,5.70
2023-03-04T03:19:15.460Z,5.60
2023-03-04T03:21:43.440Z,5.70
2023-03-04T03:24:11.366Z,5.60
2023-03-04T03:26:40.001Z,5.60
2023-03-04T03:29:08.118Z,5.60
2023-03-04T03:31:37.466Z,5.60
2023-03-04T03:34:05.556Z,5.70
2023-03-04T03:36:33.534Z,5.60
2023-03-04T03:39:01.512Z,5.60
2023-03-04T03:41:29.479Z,5.60
2023-03-04T03:43:57.440Z,5.60
2023-03-04T03:46:25.506Z,5.60
2023-03-04T03:48:54.811Z,5.60
2023-03-04T03:51:22.835Z,5.60
2023-03-04T03:53:50.751Z,5.60
2023-03-04T03:56:18.718Z,5.60
2023-03-04T03:58:46.629Z,5.60
2023-03-04T04:01:14.605Z,5.60
2023-03-04T04:03:42.581Z,5.60
2023-03-04T04:06:11.885Z,5.60
2023-03-04T04:08:40.042Z,5.60
2023-03-04T04:11:10.130Z,5.60
2023-03-04T04:13:39.354Z,5.60
2023-03-04T04:16:08.693Z,5.60
2023-03-04T04:18:36.689Z,5.60
2023-03-04T04:21:05.308Z,5.60
2023-03-04T04:23:35.050Z,5.60
2023-03-04T04:26:03.053Z,5.60
2023-03-04T04:28:31.042Z,5.60
2023-03-04T04:30:59.133Z,5.60
2023-03-04T04:33:27.434Z,5.60
2023-03-04T04:35:55.434Z,5.60
2023-03-04T04:38:24.733Z,5.60
2023-03-04T04:40:54.192Z,5.60
2023-03-04T04:43:22.120Z,5.60
2023-03-04T04:45:50.130Z,5.60
2023-03-04T04:48:18.058Z,5.60
2023-03-04T04:50:45.999Z,5.60
2023-03-04T04:53:14.593Z,5.60
2023-03-04T04:55:42.571Z,5.60
2023-03-04T04:58:11.841Z,5.60
2023-03-04T05:00:39.831Z,5.50
2023-03-04T05:03:07.828Z,5.50
2023-03-04T05:05:35.839Z,5.50
2023-03-04T05:08:03.906Z,5.60
2023-03-04T05:10:31.864Z,5.50
2023-03-04T05:12:59.865Z,5.50
2023-03-04T05:15:29.333Z,5.60
2023-03-04T05:17:57.473Z,5.50
2023-03-04T05:20:25.690Z,5.50
2023-03-04T05:22:53.705Z,5.50
2023-03-04T05:25:21.601Z,5.50
2023-03-04T05:27:49.594Z,5.50
2023-03-04T05:30:17.733Z,5.50
2023-03-04T05:32:47.137Z,5.50
2023-03-04T05:35:15.163Z,5.50
2023-03-04T05:37:43.173Z,5.50
2023-03-04T05:40:12.480Z,5.50
2023-03-04T05:42:40.416Z,5.50
2023-03-04T05:45:09.648Z,5.50
2023-03-04T05:47:37.654Z,5.50
2023-03-04T05:50:08.143Z,5.50
2023-03-04T05:52:36.115Z,5.50
2023-03-04T05:55:04.154Z,5.50
2023-03-04T05:57:32.519Z,5.50
2023-03-04T06:00:00.536Z,5.50
2023-03-04T06:02:28.608Z,5.50
2023-03-04T06:04:56.624Z,5.50
2023-03-04T06:07:25.982Z,5.50
2023-03-04T06:09:53.906Z,5.50
2023-03-04T06:12:22.238Z,5.50
2023-03-04T06:14:50.201Z,5.50
2023-03-04T06:17:18.369Z,5.50
2023-03-04T06:19:46.333Z,5.50
2023-03-04T06:22:14.305Z,5.50
2023-03-04T06:24:43.624Z,5.50
2023-03-04T06:27:11.879Z,5.50
2023-03-04T06:29:39.852Z,5.50
2023-03-04T06:32:07.978Z,5.50
2023-03-04T06:34:36.235Z,5.50
2023-03-04T06:37:04.476Z,5.50
2023-03-04T06:39:32.900Z,5.50
2023-03-04T06:42:02.223Z,5.50
2023-03-04T06:44:30.366Z,5.50
2023-03-04T06:46:58.416Z,5.50
2023-03-04T06:49:26.499Z,5.50
2023-03-04T06:51:54.537Z,5.50
2023-03-04T06:54:22.679Z,5.50
2023-03-04T06:56:50.651Z,5.50
2023-03-04T06:59:19.990Z,5.50
2023-03-04T07:01:47.933Z,5.50
2023-03-04T07:04:16.199Z,5.50
2023-03-04T07:06:44.162Z,5.50
2023-03-04T07:09:12.130Z,5.50
2023-03-04T07:11:40.281Z,5.50
2023-03-04T07:14:08.351Z,5.50
2023-03-04T07:16:37.938Z,5.50
2023-03-04T07:19:06.244Z,5.50
2023-03-04T07:21:34.659Z,5.50
2023-03-04T07:24:02.657Z,5.50
2023-03-04T07:26:30.953Z,5.50
2023-03-04T07:28:59.938Z,5.50
2023-03-04T07:31:30.499Z,5.50
2023-03-04T07:34:01.573Z,5.50
2023-03-04T07:36:29.943Z,5.50
2023-03-04T07:38:58.283Z,5.50
2023-03-04T07:41:27.992Z,5.60
2023-03-04T07:43:57.600Z,5.60
2023-03-04T07:46:26.356Z,5.60
2023-03-04T07:48:54.357Z,5.60
2023-03-04T07:51:25.996Z,5.60
2023-03-04T07:53:55.353Z,5.60
2023-03-04T07:56:25.941Z,5.60
2023-03-04T07:58:54.390Z,5.60
2023-03-04T08:01:24.408Z,5.70
2023-03-04T08:03:52.587Z,5.60
2023-03-04T08:06:21.907Z,5.70
2023-03-04T08:08:56.471Z,5.70
2023-03-04T08:11:24.514Z,5.70
2023-03-04T08:13:54.072Z,5.70
2023-03-04T08:16:23.587Z,5.70
2023-03-04T08:18:53.878Z,5.70
2023-03-04T08:21:22.854Z,5.70
2023-03-04T08:23:52.880Z,5.80
2023-03-04T08:26:23.745Z,5.80
2023-03-04T08:28:52.660Z,5.80
2023-03-04T08:31:20.828Z,5.80
2023-03-04T08:33:48.952Z,5.90
2023-03-04T08:36:17.332Z,5.90
2023-03-04T08:38:45.449Z,5.90
2023-03-04T08:41:15.403Z,5.90
2023-03-04T08:43:43.725Z,5.90
2023-03-04T08:46:11.629Z,6.00
2023-03-04T08:48:39.964Z,6.00
2023-03-04T08:51:12.316Z,6.00
2023-03-04T08:53:40.657Z,6.00
2023-03-04T08:56:09.606Z,6.10
2023-03-04T08:58:38.876Z,6.10
2023-03-04T09:01:09.974Z,6.10
2023-03-04T09:03:38.293Z,6.20
2023-03-04T09:06:07.357Z,6.20
2023-03-04T09:08:35.716Z,6.20
2023-03-04T09:11:04.424Z,6.20
2023-03-04T09:13:33.012Z,6.30
2023-03-04T09:16:02.993Z,6.30
2023-03-04T09:18:31.091Z,6.30
2023-03-04T09:20:58.990Z,6.40
2023-03-04T09:23:26.922Z,6.40
2023-03-04T09:25:54.864Z,6.40
2023-03-04T09:28:22.831Z,6.50
2023-03-04T09:30:50.752Z,6.50
2023-03-04T09:33:20.133Z,6.60
2023-03-04T09:35:49.891Z,6.60
2023-03-04T09:38:17.825Z,6.60
2023-03-04T09:40:49.116Z,6.70
2023-03-04T09:43:23.489Z,6.70
2023-03-04T09:45:55.990Z,6.80
2023-03-04T09:48:28.461Z,6.80
2023-03-04T09:51:11.025Z,6.80
2023-03-04T09:53:48.466Z,6.90
2023-03-04T09:56:16.474Z,6.90
2023-03-04T09:58:52.056Z,7.00
2023-03-04T10:01:26.540Z,7.00
2023-03-04T10:04:00.525Z,7.00
2023-03-04T10:06:29.637Z,7.10
2023-03-04T10:09:01.471Z,7.10
2023-03-04T10:11:35.157Z,7.20
2023-03-04T10:14:14.402Z,7.20
2023-03-04T10:16:46.845Z,7.20
2023-03-04T10:19:35.335Z,7.20
2023-03-04T10:22:12.341Z,7.30
2023-03-04T10:24:40.292Z,7.30
2023-03-04T10:27:14.707Z,7.30
2023-03-04T10:29:42.607Z,7.30
2023-03-04T10:32:15.153Z,7.30
2023-03-04T10:34:44.534Z,7.40
2023-03-04T10:37:12.653Z,7.40
2023-03-04T10:39:41.851Z,7.40
2023-03-04T10:42:28.796Z,7.50
2023-03-04T10:44:58.614Z,7.50
2023-03-04T10:47:28.548Z,7.50
2023-03-04T10:49:59.327Z,7.60
2023-03-04T10:52:32.664Z,7.70
2023-03-04T10:55:03.934Z,7.70
2023-03-04T10:57:37.052Z,7.80
2023-03-04T11:00:31.940Z,7.80
2023-03-04T11:03:25.018Z,7.90
2023-03-04T11:06:23.154Z,7.90
2023-03-04T11:08:59.078Z,7.90
2023-03-04T11:11:34.640Z,8.00
2023-03-04T11:14:07.457Z,8.00
2023-03-04T11:16:35.465Z,8.10
2023-03-04T11:19:07.449Z,8.10
2023-03-04T11:21:40.793Z,8.10
2023-03-04T11:24:27.689Z,8.10
2023-03-04T11:27:02.790Z,8.20
2023-03-04T11:29:35.007Z,8.20
2023-03-04T11:32:11.145Z,8.20
2023-03-04T11:34:43.495Z,8.20
2023-03-04T11:37:19.712Z,8.20
2023-03-04T11:39:51.891Z,8.20
2023-03-04T11:42:29.290Z,8.20
2023-03-04T11:44:57.641Z,8.30
2023-03-04T11:47:46.297Z,8.30
2023-03-04T11:50:28.558Z,8.30
2023-03-04T11:53:16.599Z,8.30
2023-03-04T11:55:49.344Z,8.30
2023-03-04T11:58:40.571Z,8.30
2023-03-04T12:01:11.141Z,8.30
2023-03-04T12:04:02.123Z,8.40
2023-03-04T12:06:38.210Z,8.40
2023-03-04T12:09:26.920Z,8.40
2023-03-04T12:12:05.092Z,8.40
2023-03-04T12:14:41.290Z,8.50
2023-03-04T12:17:30.464Z,8.50
2023-03-04T12:20:19.676Z,8.50
2023-03-04T12:22:52.513Z,8.50
2023-03-04T12:25:34.040Z,8.50
2023-03-04T12:28:13.020Z,8.60
2023-03-04T12:30:52.053Z,8.60
2023-03-04T12:33:28.940Z,8.60
2023-03-04T12:36:07.561Z,8.60
2023-03-04T12:38:44.189Z,8.60
2023-03-04T12:41:28.287Z,8.60
2023-03-04T12:44:05.236Z,8.60
2023-03-04T12:46:43.312Z,8.70
2023-03-04T12:49:35.632Z,8.70
2023-03-04T12:52:11.568Z,8.70
2023-03-04T12:54:42.732Z,8.70
2023-03-04T12:57:15.087Z,8.70
2023-03-04T12:59:49.290Z,8.70
2023-03-04T13:02:45.788Z,8.70
2023-03-04T13:05:32.942Z,8.70
2023-03-04T13:08:09.491Z,8.80
2023-03-04T13:10:37.417Z,8.80
2023-03-04T13:13:06.751Z,8.80
2023-03-04T13:15:36.694Z,8.80
2023-03-04T13:18:21.384Z,8.80
2023-03-04T13:21:07.814Z,8.80
2023-03-04T13:23:35.835Z,8.90
2023-03-04T13:26:19.194Z,8.90
2023-03-04T13:28:54.981Z,8.90
2023-03-04T13:31:27.039Z,8.90
2023-03-04T13:34:00.825Z,9.00
2023-03-04T13:36:59.646Z,9.00
2023-03-04T13:39:37.156Z,9.00
2023-03-04T13:42:21.011Z,9.00
2023-03-04T13:45:04.464Z,9.10
2023-03-04T13:47:49.595Z,9.10
2023-03-04T13:50:37.678Z,9.10
2023-03-04T13:53:30.500Z,9.10
2023-03-04T13:56:22.851Z,9.10
2023-03-04T13:58:53.267Z,9.10
2023-03-04T14:01:28.507Z,9.10
2023-03-04T14:03:56.659Z,9.10
2023-03-04T14:06:25.903Z,9.10
2023-03-04T14:08:54.864Z,9.10
2023-03-04T14:11:28.712Z,9.10
2023-03-04T14:13:59.948Z,9.10
2023-03-04T14:16:30.544Z,9.10
2023-03-04T14:19:04.082Z,9.10
2023-03-04T14:21:32.517Z,9.10
2023-03-04T14:24:05.843Z,9.10
2023-03-04T14:26:34.594Z,9.10
2023-03-04T14:29:03.025Z,9.10
2023-03-04T14:31:36.974Z,9.10
2023-03-04T14:34:05.785Z,9.10
2023-03-04T14:36:37.069Z,9.10
2023-03-04T14:39:08.362Z,9.10
2023-03-04T14:41:38.476Z,9.10
2023-03-04T14:44:15.395Z,9.10
2023-03-04T14:47:05.976Z,9.00
2023-03-04T14:49:36.811Z,9.00
2023-03-04T14:52:05.046Z,9.00
2023-03-04T14:54:36.548Z,9.00
2023-03-04T14:57:23.935Z,9.00
2023-03-04T14:59:52.987Z,9.00
2023-03-04T15:02:31.279Z,8.90
2023-03-04T15:05:02.371Z,8.90
2023-03-04T15:07:34.699Z,8.90
2023-03-04T15:10:05.689Z,8.90
2023-03-04T15:12:36.238Z,8.90
2023-03-04T15:15:06.006Z,8.90
2023-03-04T15:17:42.490Z,8.90
2023-03-04T15:20:27.826Z,8.80
2023-03-04T15:23:01.273Z,8.80
2023-03-04T15:25:29.781Z,8.80
2023-03-04T15:28:01.124Z,8.80
2023-03-04T15:30:33.402Z,8.80
2023-03-04T15:33:02.919Z,8.80
2023-03-04T15:35:34.075Z,8.70
2023-03-04T15:38:02.454Z,8.70
2023-03-04T15:40:33.180Z,8.70
2023-03-04T15:43:03.688Z,8.70
2023-03-04T15:45:35.962Z,8.70
2023-03-04T15:48:08.964Z,8.70
2023-03-04T15:50:38.910Z,8.70
2023-03-04T15:53:09.543Z,8.70
2023-03-04T15:55:37.650Z,8.60
2023-03-04T15:58:05.979Z,8.60
2023-03-04T16:00:34.592Z,8.60
2023-03-04T16:03:02.551Z,8.60
2023-03-04T16:05:32.870Z,8.50
2023-03-04T16:08:00.966Z,8.50
2023-03-04T16:10:31.145Z,8.50
2023-03-04T16:12:59.225Z,8.50
2023-03-04T16:15:29.208Z,8.50
2023-03-04T16:17:57.654Z,8.40
2023-03-04T16:20:29.006Z,8.40
2023-03-04T16:23:00.577Z,8.40
2023-03-04T16:25:30.232Z,8.40
2023-03-04T16:27:59.027Z,8.40
2023-03-04T16:30:28.121Z,8.30
2023-03-04T16:32:56.419Z,8.30
2023-03-04T16:35:25.251Z,8.30
2023-03-04T16:37:53.685Z,8.30
2023-03-04T16:40:26.969Z,8.30
2023-03-04T16:42:54.970Z,8.20
2023-03-04T16:45:25.015Z,8.20
2023-03-04T16:47:53.773Z,8.20
2023-03-04T16:50:27.099Z,8.20
2023-03-04T16:52:56.596Z,8.20
2023-03-04T16:55:28.040Z,8.10
2023-03-04T16:57:57.841Z,8.10
2023-03-04T17:00:28.883Z,8.10
2023-03-04T17:02:58.679Z,8.10
2023-03-04T17:05:30.006Z,8.00
2023-03-04T17:07:58.328Z,8.00
2023-03-04T17:10:28.246Z,8.00
2023-03-04T17:12:56.552Z,8.00
2023-03-04T17:15:24.903Z,8.00
2023-03-04T17:17:53.301Z,7.90
2023-03-04T17:20:21.401Z,7.90
2023-03-04T17:22:49.375Z,7.90
2023-03-04T17:25:17.518Z,7.90
2023-03-04T17:27:46.952Z,7.80
2023-03-04T17:30:15.533Z,7.80
2023-03-04T17:32:43.524Z,7.80
2023-03-04T17:35:12.224Z,7.80
2023-03-04T17:37:40.658Z,7.80
2023-03-04T17:40:13.974Z,7.80
2023-03-04T17:42:42.132Z,7.70
2023-03-04T17:45:12.651Z,7.70
2023-03-04T17:47:40.653Z,7.70
2023-03-04T17:50:09.782Z,7.60
2023-03-04T17:52:37.903Z,7.60
2023-03-04T17:55:06.646Z,7.60
2023-03-04T17:57:37.623Z,7.60
2023-03-04T18:00:06.575Z,7.50
2023-03-04T18:02:35.942Z,7.50
2023-03-04T18:05:06.792Z,7.50
2023-03-04T18:07:35.172Z,7.50
2023-03-04T18:10:03.217Z,7.50
2023-03-04T18:12:31.241Z,7.40
2023-03-04T18:14:59.258Z,7.40
2023-03-04T18:17:27.636Z,7.40
2023-03-04T18:19:57.607Z,7.40
2023-03-04T18:22:25.703Z,7.40
2023-03-04T18:24:53.641Z,7.30
2023-03-04T18:27:21.574Z,7.30
2023-03-04T18:29:49.502Z,7.30
2023-03-04T18:32:17.491Z,7.30
2023-03-04T18:34:45.539Z,7.30
2023-03-04T18:37:14.896Z,7.20
2023-03-04T18:39:42.948Z,7.20
2023-03-04T18:42:11.121Z,7.20
2023-03-04T18:44:39.332Z,7.20
2023-03-04T18:47:07.962Z,7.20
2023-03-04T18:49:35.998Z,7.10
2023-03-04T18:52:04.050Z,7.20
2023-03-04T18:54:33.447Z,7.10
2023-03-04T18:57:07.799Z,7.10
2023-03-04T18:59:39.753Z,7.10
2023-03-04T19:02:14.473Z,7.10
2023-03-04T19:04:42.537Z,7.00
2023-03-04T19:07:10.490Z,7.00
2023-03-04T19:09:39.805Z,7.00
2023-03-04T19:12:07.957Z,7.00
2023-03-04T19:14:35.963Z,7.00
2023-03-04T19:17:03.975Z,7.00
2023-03-04T19:19:31.933Z,7.00
2023-03-04T19:22:00.167Z,6.90
2023-03-04T19:24:28.260Z,6.90
2023-03-04T19:26:57.606Z,6.90
2023-03-04T19:29:25.576Z,6.90
2023-03-04T19:31:53.595Z,6.90
2023-03-04T19:34:21.529Z,6.80
2023-03-04T19:36:49.564Z,6.80
2023-03-04T19:39:18.613Z,6.80
2023-03-04T19:41:46.627Z,6.80
2023-03-04T19:44:16.004Z,6.80
2023-03-04T19:46:44.035Z,6.80
2023-03-04T19:49:12.062Z,6.70
2023-03-04T19:51:40.182Z,6.70
2023-03-04T19:54:08.912Z,6.70
2023-03-04T19:56:36.832Z,6.70
2023-03-04T19:59:05.006Z,6.70
2023-03-04T20:01:36.349Z,6.60
2023-03-04T20:04:07.092Z,6.60
2023-03-04T20:06:37.573Z,6.60
2023-03-04T20:09:06.024Z,6.60
2023-03-04T20:11:39.242Z,6.50
2023-03-04T20:14:12.144Z,6.50
2023-03-04T20:16:41.686Z,6.50
2023-03-04T20:19:09.615Z,6.50
2023-03-04T20:21:37.683Z,6.40
2023-03-04T20:24:06.235Z,6.40
2023-03-04T20:26:34.375Z,6.40
2023-03-04T20:29:02.660Z,6.30
2023-03-04T20:31:32.513Z,6.30
2023-03-04T20:34:01.981Z,6.30
2023-03-04T20:36:31.420Z,6.20
2023-03-04T20:39:02.842Z,6.20
2023-03-04T20:41:34.705Z,6.20
2023-03-04T20:44:02.788Z,6.20
2023-03-04T20:46:38.182Z,6.10
2023-03-04T20:49:10.961Z,6.10
2023-03-04T20:51:39.872Z,6.10
2023-03-04T20:54:08.951Z,6.00
2023-03-04T20:56:37.897Z,6.00
2023-03-04T20:59:08.170Z,6.00
2023-03-04T21:01:36.773Z,5.90
2023-03-04T21:04:05.506Z,5.90
2023-03-04T21:06:34.940Z,5.90
2023-03-04T21:09:05.969Z,5.90
2023-03-04T21:11:40.022Z,5.80
2023-03-04T21:14:09.504Z,5.80
2023-03-04T21:16:37.463Z,5.80
2023-03-04T21:19:05.503Z,5.80
2023-03-04T21:21:34.859Z,5.70
2023-03-04T21:24:02.870Z,5.70
2023-03-04T21:26:30.847Z,5.70
2023-03-04T21:28:58.795Z,5.70
2023-03-04T21:31:30.345Z,5.60
2023-03-04T21:34:00.186Z,5.60
2023-03-04T21:36:28.509Z,5.60
2023-03-04T21:38:57.914Z,5.60
2023-03-04T21:41:25.976Z,5.60
2023-03-04T21:43:53.962Z,5.60
2023-03-04T21:46:23.333Z,5.50
2023-03-04T21:48:51.468Z,5.50
2023-03-04T21:51:19.468Z,5.50
2023-03-04T21:53:47.466Z,5.50
2023-03-04T21:56:16.869Z,5.50
2023-03-04T21:58:45.937Z,5.50
2023-03-04T22:01:15.877Z,5.50
2023-03-04T22:03:44.112Z,5.50
2023-03-04T22:06:13.433Z,5.40
2023-03-04T22:08:42.407Z,5.40
2023-03-04T22:11:12.311Z,5.40
2023-03-04T22:13:41.771Z,5.40
2023-03-04T22:16:10.511Z,5.40
2023-03-04T22:18:40.691Z,5.40
2023-03-04T22:21:10.971Z,5.40
2023-03-04T22:23:39.271Z,5.40
2023-03-04T22:26:09.442Z,5.30
2023-03-04T22:28:37.680Z,5.40
2023-03-04T22:31:16.876Z,5.30
2023-03-04T22:33:45.494Z,5.30
2023-03-04T22:36:14.546Z,5.30
2023-03-04T22:38:44.596Z,5.30
2023-03-04T22:41:14.795Z,5.30
2023-03-04T22:43:42.833Z,5.30
2023-03-04T22:46:17.587Z,5.30
2023-03-04T22:48:45.560Z,5.20
2023-03-04T22:51:13.595Z,5.20
2023-03-04T22:53:43.477Z,5.20
2023-03-04T22:56:12.250Z,5.20
2023-03-04T22:58:40.333Z,5.20
2023-03-04T23:01:09.217Z,5.20
2023-03-04T23:03:39.310Z,5.20
2023-03-04T23:06:09.860Z,5.20
2023-03-04T23:08:40.028Z,5.20
2023-03-04T23:11:10.192Z,5.20
2023-03-04T23:13:38.797Z,5.10
2023-03-04T23:16:08.915Z,5.20
2023-03-04T23:18:39.073Z,5.10
2023-03-04T23:21:07.723Z,5.10
2023-03-04T23:23:35.998Z,5.10
2023-03-04T23:26:04.613Z,5.10
2023-03-04T23:28:32.895Z,5.10
2023-03-04T23:31:00.892Z,5.10
2023-03-04T23:33:28.879Z,5.10
2023-03-04T23:35:58.197Z,5.10
2023-03-04T23:38:26.197Z,5.10
2023-03-04T23:40:54.224Z,5.00
2023-03-04T23:43:22.161Z,5.10
2023-03-04T23:45:50.208Z,5.00
2023-03-04T23:48:18.178Z,5.00
2023-03-04T23:50:51.892Z,5.00
2023-03-04T23:53:21.593Z,5.00
2023-03-04T23:55:49.523Z,5.00
2023-03-04T23:58:17.542Z,5.00
